logo tempoitalia

Diretta Meteo Springfield Capital, Stati Uniti (USA)lunedì 31 agosto ore 00:52

Mappa
Sereno 24 °C Sereno 24 Ore: T.min 22 T.max 33
Ponente Sud Km/h 14.8 Punto di rugiada: 16 °C Umidità: 60% Visibilità: 10 Km
Il sole sorge alle: 06:26 Il sole tramonta alle: 19:31
31 Agosto 2026 00:52 tempo osservato: Sereno Sereno 24 60 1015 vento: Nord S 14.8
30 Agosto 2026 23:52 tempo osservato: Sereno Sereno 25 57 1015 vento: Nord S 13
30 Agosto 2026 22:52 tempo osservato: Sereno Sereno 27 50 1015 vento: Nord S 16.7
30 Agosto 2026 21:52 tempo osservato: Sereno Sereno 27 50 1015 vento: Nord S 14.8
30 Agosto 2026 20:52 tempo osservato: Sereno Sereno 28 51 1015 vento: Nord S 13
30 Agosto 2026 19:52 tempo osservato: Sereno Sereno 28 54 1015 vento: Nord S 11.1
30 Agosto 2026 18:52 tempo osservato: Sereno Sereno 31 43 1015 vento: Nord S 13
30 Agosto 2026 17:52 tempo osservato: Sereno Sereno 32 43 1015 vento: Nord S 18.5
30 Agosto 2026 16:52 tempo osservato: Sereno Sereno 33 36 1015 vento: Nord S 14.8
30 Agosto 2026 15:52 tempo osservato: Sereno Sereno 33 38 1015 vento: Nord S/SE 16.7
30 Agosto 2026 14:52 tempo osservato: Sereno Sereno 33 41 1015 vento: Nord S/SE 18.5
30 Agosto 2026 13:52 tempo osservato: Sereno Sereno 32 43 1016 vento: Nord S/SE 14.8
30 Agosto 2026 12:52 tempo osservato: Sereno Sereno 32 43 1016 vento: Nord S 18.5
30 Agosto 2026 11:52 tempo osservato: Sereno Sereno 31 43 1017 vento: Nord S/SO 18.5
30 Agosto 2026 10:52 tempo osservato: Sereno Sereno 28 51 1017 vento: Nord S/SO 13
30 Agosto 2026 09:52 tempo osservato: Sereno Sereno 27 54 1016 vento: Nord S/SO 18.5
30 Agosto 2026 08:52 tempo osservato: Sereno Sereno 24 69 1017 vento: Nord S/SO 14.8
30 Agosto 2026 07:52 tempo osservato: Sereno Sereno 22 73 1017 vento: Nord S 11.1
30 Agosto 2026 06:52 tempo osservato: Sereno Sereno 22 73 1016 vento: Nord S 11.1
30 Agosto 2026 05:52 tempo osservato: Sereno Sereno 22 73 1016 vento: Nord S 11.1
30 Agosto 2026 04:52 tempo osservato: Sereno Sereno 22 73 1016 vento: Nord S 14.8
30 Agosto 2026 03:52 tempo osservato: Sereno Sereno 22 73 1016 vento: Nord S 14.8
30 Agosto 2026 02:52 tempo osservato: Sereno Sereno 23 68 1016 vento: Nord S 14.8
30 Agosto 2026 01:52 tempo osservato: Sereno Sereno 22 73 1016 vento: Nord S 11.1